Flight Track Log - Related Links

Times and Time Zones

All times are in EDT time to prevent confusion due to time zone crossing. See the UAL4180 flight status page for this flight to view local times or setup timezone preferences in your user account.

Time Position Orientation Groundspeed Altitude Reporting Facility
EDT Latitude Longitude Course Direction KTS MPH feet Rate Location/Type
Mon 12:14:39 PM 29.9786 -95.2981 30° Northeast 159 183 800  Level Houston Center
Mon 12:15:59 PM 30.0289 -95.2533 38° Northeast 205 236 3,100 1,485 Climbing Houston Center
Mon 12:16:16 PM 30.0361 -95.2497 23° Northeast 199 229 3,200 1,672 Climbing Houston Center
Mon 12:17:00 PM 30.2998 -95.2024 14° North  Level FlightAware Approximate
Mon 12:17:00 PM 30.0956 -95.2236 21° North 266 306 4,800  Level Houston Center
Mon 12:17:18 PM 30.1161 -95.2175 14° North 247 284 5,500 2,459 Climbing Houston Center
Mon 12:18:00 PM 30.4069 -95.1632 23° Northeast  Level FlightAware Approximate
Mon 12:18:01 PM 30.1647 -95.1981 19° North 264 304 7,300  Level Houston Center
Mon 12:18:20 PM 30.1856 -95.1917 15° North 262 302 8,000 2,361 Climbing Houston Center
Mon 12:19:00 PM 30.5078 -95.1053 27° Northeast  Level FlightAware Approximate
Mon 12:19:02 PM 30.2383 -95.1769 14° North 255 293 9,700  Level Houston Center
Mon 12:19:22 PM 30.2550 -95.1736 10° North 255 293 10,200 1,024 Climbing Houston Center
Mon 12:20:00 PM 30.6059 -95.0461 30° Northeast  Level FlightAware Approximate
Mon 12:20:24 PM 30.3297 -95.1533 13° North 275 316 11,100  Level Houston Center
Mon 12:21:26 PM 30.4147 -95.1272 15° North 312 359 12,100 1,065 Climbing Houston Center
Mon 12:22:28 PM 30.5208 -95.0953 15° North 335 386 13,300 1,065 Climbing Houston Center
Mon 12:23:30 PM 30.6147 -95.0597 18° North 350 403 14,300 960 Climbing Houston Center
Mon 12:24:33 PM 30.7075 -95.0008 29° Northeast 376 433 15,300 1,113 Climbing Houston Center
Mon 12:25:34 PM 30.8006 -94.9433 28° Northeast 377 434 16,600 1,122 Climbing Houston Center
Mon 12:26:36 PM 30.8925 -94.8856 28° Northeast 375 432 17,600 931 Climbing Houston Center
Mon 12:27:30 PM 30.9886 -94.8256 28° Northeast 369 425 18,400 895 Climbing Fort Worth Center
Mon 12:28:30 PM 31.0833 -94.7669 28° Northeast 369 425 19,300 950 Climbing Fort Worth Center
Mon 12:29:30 PM 31.1842 -94.7036 28° Northeast 382 440 20,300 950 Climbing Fort Worth Center
Mon 12:30:30 PM 31.2767 -94.6375 31° Northeast 388 447 21,200 900 Climbing Fort Worth Center
Mon 12:31:30 PM 31.3756 -94.5739 29° Northeast 393 452 22,100 1,000 Climbing Fort Worth Center
Mon 12:32:30 PM 31.4658 -94.5078 32° Northeast 406 467 23,200 1,250 Climbing Fort Worth Center
Mon 12:33:30 PM 31.5603 -94.4414 31° Northeast 406 467 24,600 1,250 Climbing Fort Worth Center
Mon 12:34:30 PM 31.6528 -94.3775 30° Northeast 394 453 25,700 1,150 Climbing Fort Worth Center
Mon 12:35:30 PM 31.7453 -94.3108 31° Northeast 389 448 26,900 1,100 Climbing Fort Worth Center
Mon 12:36:30 PM 31.8375 -94.2492 30° Northeast 389 448 27,900 950 Climbing Fort Worth Center
Mon 12:37:30 PM 31.9256 -94.1850 32° Northeast 376 433 28,800 900 Climbing Fort Worth Center
Mon 12:38:30 PM 32.0161 -94.1253 29° Northeast 371 427 29,700 900 Climbing Fort Worth Center
Mon 12:39:30 PM 32.1042 -94.0608 32° Northeast 371 427 30,600 950 Climbing Fort Worth Center
Mon 12:40:30 PM 32.1942 -93.9914 33° Northeast 371 427 31,600 1,050 Climbing Fort Worth Center
Mon 12:41:30 PM 32.2864 -93.9289 30° Northeast 371 427 32,700 800 Climbing Fort Worth Center
Mon 12:42:30 PM 32.3761 -93.8614 32° Northeast 371 427 33,200 700 Climbing Fort Worth Center
Mon 12:43:30 PM 32.4703 -93.7936 31° Northeast 376 433 34,100 900 Climbing Fort Worth Center
Mon 12:44:30 PM 32.5625 -93.7283 31° Northeast 376 433 35,000 450 Climbing Fort Worth Center
Mon 12:45:30 PM 32.6586 -93.6628 30° Northeast 376 433 35,000  Level Fort Worth Center
Mon 12:46:30 PM 32.7586 -93.5919 31° Northeast 388 447 35,000  Level Fort Worth Center
Mon 12:47:30 PM 32.8608 -93.5183 31° Northeast 411 473 35,000  Level Fort Worth Center
Mon 12:48:30 PM 32.9669 -93.4419 31° Northeast 424 488 35,000  Level Fort Worth Center
Mon 12:49:30 PM 33.0750 -93.3653 31° Northeast 439 505 35,000  Level Fort Worth Center
Mon 12:51:22 PM 33.2717 -93.2244 31° Northeast 445 512 35,000  Level Memphis Center
Mon 12:52:22 PM 33.3778 -93.1483 31° Northeast 440 506 35,000  Level Memphis Center
Mon 12:53:22 PM 33.4944 -93.0625 32° Northeast 440 506 35,000  Level Memphis Center
Mon 12:54:22 PM 33.5983 -92.9858 32° Northeast 433 498 35,000  Level Memphis Center
Mon 12:55:22 PM 33.7022 -92.9117 31° Northeast 433 498 35,000  Level Memphis Center
Mon 12:56:22 PM 33.8081 -92.8322 32° Northeast 433 498 35,000  Level Memphis Center
Mon 12:57:22 PM 33.9158 -92.7603 29° Northeast 440 506 35,000  Level Memphis Center
Mon 12:58:22 PM 34.0175 -92.6803 33° Northeast 435 501 35,000  Level Memphis Center
Mon 12:59:22 PM 34.1086 -92.6075 33° Northeast 429 494 35,000  Level Memphis Center
Mon 01:00:22 PM 34.2125 -92.5272 33° Northeast 429 494 35,000  Level Memphis Center
Mon 01:01:22 PM 34.3158 -92.4519 31° Northeast 429 494 35,000  Level Memphis Center
Mon 01:02:22 PM 34.4153 -92.3789 31° Northeast 429 494 35,000  Level Memphis Center
Mon 01:03:22 PM 34.5144 -92.3006 33° Northeast 429 494 35,000  Level Memphis Center
Mon 01:04:22 PM 34.6158 -92.2269 31° Northeast 424 488 35,000  Level Memphis Center
Mon 01:05:22 PM 34.7317 -92.1589 26° Northeast 418 481 35,000  Level Memphis Center
Mon 01:06:22 PM 34.8386 -92.1181 17° North 407 468 35,000  Level Memphis Center
Mon 01:07:22 PM 34.9497 -92.0772 17° North 407 468 35,000  Level Memphis Center
Mon 01:08:22 PM 35.0586 -92.0339 18° North 407 468 35,000  Level Memphis Center
Mon 01:09:22 PM 35.1700 -91.9878 19° North 407 468 35,000  Level Memphis Center
Mon 01:10:22 PM 35.2831 -91.9469 16° North 412 474 35,000  Level Memphis Center
Mon 01:11:22 PM 35.3942 -91.9031 18° North 412 474 35,000  Level Memphis Center
Mon 01:12:22 PM 35.5031 -91.8592 18° North 412 474 35,000  Level Memphis Center
Mon 01:13:22 PM 35.6183 -91.8178 16° North 412 474 35,000  Level Memphis Center
Mon 01:14:22 PM 35.7272 -91.7736 18° North 412 474 35,000  Level Memphis Center
Mon 01:15:22 PM 35.8425 -91.7297 17° North 417 480 35,000  Level Memphis Center
Mon 01:16:22 PM 35.9514 -91.6828 19° North 417 480 35,000  Level Memphis Center
Mon 01:17:22 PM 36.0644 -91.6408 17° North 422 486 35,000  Level Memphis Center
Mon 01:18:22 PM 36.1775 -91.5964 18° North 422 486 35,000  Level Memphis Center
Mon 01:19:22 PM 36.2928 -91.5492 18° North 427 491 35,000  Level Memphis Center
Mon 01:20:22 PM 36.4097 -91.5019 18° North 427 491 35,000  Level Memphis Center
Mon 01:22:36 PM 36.6517 -91.4033 18° North 429 494 35,000  Level Kansas City Center
Mon 01:23:36 PM 36.7686 -91.3561 18° North 436 502 35,000  Level Kansas City Center
Mon 01:24:39 PM 36.8844 -91.3089 18° North 437 503 35,000  Level Kansas City Center
Mon 01:25:41 PM 37.0233 -91.2533 18° North 437 503 35,000  Level Kansas City Center
Mon 01:26:41 PM 37.1406 -91.2033 19° North 441 507 35,000  Level Kansas City Center
Mon 01:27:46 PM 37.2547 -91.1561 18° North 436 502 35,000  Level Kansas City Center
Mon 01:28:46 PM 37.3692 -91.1089 18° North 433 498 35,000  Level Kansas City Center
Mon 01:29:48 PM 37.4811 -91.0553 21° North 432 497 35,000  Level Kansas City Center
Mon 01:30:51 PM 37.5914 -90.9847 27° Northeast 440 506 35,000  Level Kansas City Center
Mon 01:31:52 PM 37.7164 -90.9075 26° Northeast 443 510 35,000  Level Kansas City Center
Mon 01:32:56 PM 37.8261 -90.8367 27° Northeast 444 511 35,000  Level Kansas City Center
Mon 01:33:57 PM 37.9361 -90.7669 27° Northeast 443 510 35,000  Level Kansas City Center
Mon 01:35:00 PM 38.0453 -90.6956 27° Northeast 443 510 35,000  Level Kansas City Center
Mon 01:36:01 PM 38.1536 -90.6253 27° Northeast 440 506 35,000  Level Kansas City Center
Mon 01:37:02 PM 38.2842 -90.5417 27° Northeast 439 505 35,000  Level Kansas City Center
Mon 01:38:06 PM 38.3933 -90.4711 27° Northeast 441 507 35,000  Level Kansas City Center
Mon 01:39:07 PM 38.5108 -90.3944 27° Northeast 436 502 35,000  Level Kansas City Center
Mon 01:40:08 PM 38.6078 -90.3311 27° Northeast 439 505 35,000  Level Kansas City Center
Mon 01:41:12 PM 38.7281 -90.2553 26° Northeast 432 497 35,000  Level Kansas City Center
Mon 01:42:13 PM 38.8319 -90.1872 27° Northeast 422 486 35,000  Level Kansas City Center
Mon 01:43:16 PM 38.9383 -90.1164 27° Northeast 422 486 35,000  Level Kansas City Center
Mon 01:44:17 PM 39.0411 -90.0469 28° Northeast 419 482 35,000  Level Kansas City Center
Mon 01:45:18 PM 39.1594 -89.9686 27° Northeast 416 479 35,000  Level Kansas City Center
Mon 01:46:21 PM 39.2667 -89.8964 28° Northeast 416 479 35,000  Level Kansas City Center
Mon 01:47:22 PM 39.3678 -89.8283 27° Northeast 412 474 35,000  Level Kansas City Center
Mon 01:48:25 PM 39.4689 -89.7608 27° Northeast 410 472 35,000  Level Kansas City Center
Mon 01:49:27 PM 39.5697 -89.6939 27° Northeast 409 471 35,000  Level Kansas City Center
Mon 01:51:32 PM 39.7825 -89.5494 28° Northeast 407 468 35,000  Level Kansas City Center
Mon 01:52:32 PM 39.8831 -89.4814 27° Northeast 408 470 35,000  Level Kansas City Center
Mon 01:53:37 PM 39.9844 -89.4125 27° Northeast 410 472 35,000  Level Kansas City Center
Mon 01:54:38 PM 40.0842 -89.3442 28° Northeast 408 470 35,000  Level Kansas City Center
Mon 01:55:38 PM 40.2042 -89.2625 27° Northeast 408 470 35,000 -372 Level Kansas City Center
Mon 01:56:47 PM 40.3028 -89.1947 28° Northeast 406 467 34,200 -916 Descending Chicago Center
Mon 01:57:49 PM 40.4061 -89.1233 28° Northeast 418 481 33,000 -585 Descending Chicago Center
Mon 01:58:50 PM 40.5289 -89.0364 28° Northeast 420 483 33,000  Level Chicago Center
Mon 01:59:52 PM 40.6311 -88.9656 28° Northeast 418 481 33,000  Level Chicago Center
Mon 02:00:54 PM 40.7353 -88.8928 28° Northeast 424 488 33,000  Level Chicago Center
Mon 02:01:56 PM 40.8467 -88.8153 28° Northeast 424 488 33,000  Level Chicago Center
Mon 02:02:58 PM 40.9492 -88.7411 29° Northeast 424 488 33,000  Level Chicago Center
Mon 02:04:00 PM 41.0531 -88.6692 28° Northeast 422 486 33,000  Level Chicago Center
Mon 02:05:01 PM 41.1558 -88.5967 28° Northeast 419 482 33,000  Level Chicago Center
Mon 02:06:03 PM 41.2803 -88.5081 28° Northeast 422 486 33,000 -1,113 Level Chicago Center
Mon 02:07:05 PM 41.3842 -88.4344 28° Northeast 420 483 30,700 -2,371 Descending Chicago Center
Mon 02:08:07 PM 41.4886 -88.3592 28° Northeast 423 487 28,100 -2,468 Descending Chicago Center
Mon 02:09:09 PM 41.6036 -88.3181 15° North 436 502 25,600 -1,984 Descending Chicago Center
Mon 02:10:11 PM 41.7294 -88.3150 North 449 517 24,000 -1,597 Descending Chicago Center
Mon 02:11:13 PM 41.8547 -88.3131 North 450 518 22,300 -1,463 Descending Chicago Center
Mon 02:12:14 PM 41.9758 -88.3119 360° North 438 504 21,000 -1,317 Descending Chicago Center
Mon 02:13:16 PM 42.0925 -88.3108 360° North 423 487 19,600 -1,839 Descending Chicago Center
Mon 02:14:18 PM 42.2289 -88.3086 North 411 473 17,200 -1,790 Descending Chicago Center
Mon 02:15:20 PM 42.3447 -88.3081 360° North 406 467 15,900 -2,177 Descending Chicago Center
Mon 02:16:22 PM 42.4517 -88.3067 North 387 445 12,700 -2,323 Descending Chicago Center
Mon 02:17:24 PM 42.5539 -88.3061 360° North 367 422 11,100 -1,500 Descending Chicago Center
Mon 02:18:26 PM 42.6400 -88.3039 North 315 362 9,600 -1,306 Descending Chicago Center
Mon 02:19:28 PM 42.7233 -88.3022 North 300 345 8,400 -1,610 Descending Chicago Center
Mon 02:20:29 PM 42.8108 -88.2689 16° North 287 330 6,300 -1,756 Descending Chicago Center
Mon 02:21:31 PM 42.8481 -88.1825 60° Northeast 267 307 4,800 -1,258 Descending Chicago Center
Mon 02:22:33 PM 42.8819 -88.1006 61° Northeast 258 297 3,700 -1,161 Descending Chicago Center
Mon 02:23:04 PM 42.9000 -88.0667 54° Northeast 213 245 3,000 -1,109 Descending KMKE
Mon 02:24:05 PM 42.9167 -88.0000 71° East 159 183 2,000 -984 Descending KMKE

Login

Don't have an account? Register now (free) for customized features, flight alerts, and more!